• Join FlightAware (Why Join?)
  • Login
  • US Flag 
09:50PM EST


 

Airport Tracker/Info


-or-


 

Live Flight TrackerFlight Track Log ✈ DAL6048 ✈ 15-Jul-2013 ✈ KLGA - KMHT

Flight Track Log - Related Links

Times and Time Zones

All times are in EDT time to prevent confusion due to time zone crossing. See the DAL6048 flight status page for this flight to view local times or setup timezone preferences in your user account.

Time Position Orientation Groundspeed Altitude Reporting Facility
EDT Latitude Longitude Course Direction KTS MPH feet Rate Location/Type
11:32AM 40.8000 -73.9000 27° Northeast 176 203 1,300  Level New York TRACON
11:33AM 40.8667 -73.9000 360° North 231 266 3,100 2,040 Climbing New York TRACON
11:34AM 40.9000 -73.8333 57° Northeast 261 300 5,400 2,220 Climbing New York TRACON
11:35AM 41.1069 -73.6022 28° Northeast  Level FlightAware Approximate
11:35AM 40.9500 -73.7500 52° Northeast 273 314 7,400  Level New York TRACON
11:36AM 41.1910 -73.5329 33° Northeast  Level FlightAware Approximate
11:36AM 41.0022 -73.6117 63° Northeast 288 331 10,600  Level Boston Center
11:37AM 41.2742 -73.4616 27° Northeast  Level FlightAware Approximate
11:37AM 41.0717 -73.5386 38° Northeast 293 337 12,400  Level Boston Center
11:38AM 41.1450 -73.4986 22° Northeast 298 343 13,400 900 Climbing Boston Center
11:39AM 41.2392 -73.4478 22° Northeast 326 375 14,200 720 Climbing Boston Center
11:40AM 41.3189 -73.3964 26° Northeast 341 392 14,900 720 Climbing Boston Center
11:41AM 41.4175 -73.3258 28° Northeast 353 406 15,700 600 Climbing Boston Center
11:42AM 41.5139 -73.2553 29° Northeast 374 430 16,200 360 Climbing Boston Center
11:43AM 41.6061 -73.1869 29° Northeast 374 430 16,500 360 Climbing Boston Center
11:44AM 41.7192 -73.1047 28° Northeast 374 430 17,000 240 Climbing Boston Center
11:45AM 41.8092 -73.0361 30° Northeast 386 444 17,000  Level Boston Center
11:46AM 41.9136 -72.9589 29° Northeast 394 453 17,000  Level Boston Center
11:47AM 42.0161 -72.8844 28° Northeast 399 459 17,000  Level Boston Center
11:48AM 42.1142 -72.8094 30° Northeast 399 459 17,000  Level Boston Center
11:49AM 42.2019 -72.7428 29° Northeast 399 459 17,000  Level Boston Center
11:50AM 42.2958 -72.6703 30° Northeast 399 459 17,000  Level Boston Center
11:51AM 42.3961 -72.5750 35° Northeast 399 459 17,000 -60 Level Boston Center
11:52AM 42.4631 -72.4683 50° Northeast 394 453 16,900 -540 Descending Boston Center
11:53AM 42.5358 -72.3583 48° Northeast 394 453 16,000 -1,260 Descending Boston Center
11:54AM 42.6067 -72.2511 48° Northeast 381 438 14,400 -1,920 Descending Boston Center
11:55AM 42.6814 -72.1378 48° Northeast 367 422 12,200 -1,860 Descending Boston Center
11:57AM 42.7372 -72.0500 49° Northeast 350 403 10,400 -1,500 Descending Boston Center
11:58AM 42.7806 -71.9281 64° Northeast 302 348 9,000 -1,680 Descending Boston Center
11:59AM 42.7989 -71.8175 77° East 271 312 7,100 -1,740 Descending Boston Center
12:00PM 42.7775 -71.7272 108° East 263 303 5,600 -1,140 Descending Boston Center
12:01PM 42.7558 -71.6228 106° East 263 303 4,900 -780 Descending Boston Center
12:02PM 42.7450 -71.5411 100° East 250 288 4,100 -960 Descending Boston Center
12:03PM 42.7714 -71.4558 67° East 218 251 3,000 -1,140 Descending Boston Center